Time;durP1;ratioP1;P1;durP2;ratioP2;P2;SDS_P1;SDS_P2;PMS_P1;PMS_P2;Temp;Humidity;BMP_temperature;BMP_pressure;BME280_temperature;BME280_humidity;BME280_pressure;Samples;Min_cycle;Max_cycle;Signal;HPM_P1;HPM_P2
2022/04/17 00:01:03;;;;;;;0.60;0.10;;;9.00;99.90;;;;;;5033696;28;20972;-76
2022/04/17 00:03:32;;;;;;;0.70;0.30;;;9.00;99.90;;;;;;5033496;28;20879;-75
2022/04/17 00:06:00;;;;;;;0.60;0.10;;;9.00;99.90;;;;;;5033534;28;20447;-76
2022/04/17 00:08:28;;;;;;;0.60;0.20;;;8.90;99.90;;;;;;5032974;28;20438;-77
2022/04/17 00:10:56;;;;;;;0.60;0.20;;;8.90;99.90;;;;;;5032982;28;20481;-74
2022/04/17 00:13:25;;;;;;;0.87;0.53;;;;;;;;;;5032964;28;20557;-76
2022/04/17 00:15:53;;;;;;;0.80;0.30;;;8.70;99.90;;;;;;5032741;28;20939;-75
2022/04/17 00:18:22;;;;;;;1.57;0.63;;;8.50;99.90;;;;;;5032340;28;20457;-75
2022/04/17 00:20:50;;;;;;;0.70;0.20;;;8.40;99.90;;;;;;5034993;28;20530;-75
2022/04/17 00:23:18;;;;;;;0.60;0.10;;;8.40;99.90;;;;;;5035300;28;20850;-75
2022/04/17 00:25:46;;;;;;;5.30;1.47;;;8.30;99.90;;;;;;5033213;28;20454;-76
2022/04/17 00:28:14;;;;;;;0.60;0.20;;;8.20;99.90;;;;;;5032352;28;21123;-76
2022/04/17 00:30:42;;;;;;;0.60;0.20;;;8.00;99.90;;;;;;5032245;28;20472;-76
2022/04/17 00:33:11;;;;;;;0.60;0.10;;;8.00;99.90;;;;;;5032463;28;20485;-77
2022/04/17 00:35:44;;;;;;;1.37;0.53;;;8.00;99.90;;;;;;5032147;28;20465;-76
2022/04/17 00:38:12;;;;;;;0.60;0.10;;;8.00;99.90;;;;;;5032327;28;20443;-76
2022/04/17 00:40:40;;;;;;;0.60;0.20;;;8.10;99.90;;;;;;5032462;28;20456;-76
2022/04/17 00:43:24;;;;;;;0.60;0.10;;;8.10;99.90;;;;;;5032725;28;20980;-77
2022/04/17 00:45:52;;;;;;;0.60;0.10;;;8.10;99.90;;;;;;5032473;28;20461;-75
2022/04/17 00:48:20;;;;;;;0.60;0.10;;;8.10;99.90;;;;;;5031815;28;20765;-75
2022/04/17 00:50:50;;;;;;;0.60;0.10;;;8.20;99.90;;;;;;5032623;28;20455;-74
2022/04/17 00:53:20;;;;;;;0.60;0.10;;;8.20;99.90;;;;;;5031353;28;20473;-76
2022/04/17 00:55:48;;;;;;;0.60;0.10;;;8.20;99.90;;;;;;5031544;28;20468;-75
2022/04/17 00:58:16;;;;;;;0.60;0.10;;;8.20;99.90;;;;;;5031406;28;20472;-76
2022/04/17 01:00:44;;;;;;;0.60;0.20;;;8.20;99.90;;;;;;5029279;28;20831;-77
2022/04/17 01:03:13;;;;;;;0.60;0.10;;;8.30;99.90;;;;;;5031054;28;20667;-76
2022/04/17 01:05:43;;;;;;;0.60;0.10;;;8.30;99.90;;;;;;5029896;28;20481;-76
2022/04/17 01:08:13;;;;;;;0.60;0.10;;;8.30;99.90;;;;;;5031430;28;20973;-77
2022/04/17 01:10:41;;;;;;;0.60;0.10;;;8.30;99.90;;;;;;5031424;28;20971;-76
2022/04/17 01:13:09;;;;;;;0.60;0.10;;;8.40;99.90;;;;;;5031543;28;20465;-76
2022/04/17 01:15:38;;;;;;;0.60;0.10;;;8.40;99.90;;;;;;5031224;28;20453;-76
2022/04/17 01:18:06;;;;;;;0.60;0.10;;;8.40;99.90;;;;;;5031454;28;20937;-75
2022/04/17 01:20:34;;;;;;;0.60;0.20;;;8.40;99.90;;;;;;5031870;28;20472;-76
2022/04/17 01:28:34;;;;;;;0.60;0.10;;;8.40;99.90;;;;;;5031981;28;20456;-76
2022/04/17 01:31:03;;;;;;;0.60;0.10;;;8.40;99.90;;;;;;5031443;28;20966;-76
2022/04/17 01:33:40;;;;;;;0.60;0.10;;;8.40;99.90;;;;;;5031502;28;20447;-76
2022/04/17 01:36:08;;;;;;;0.60;0.10;;;8.40;99.90;;;;;;5030651;28;20534;-76
2022/04/17 01:38:38;;;;;;;0.60;0.10;;;8.40;99.90;;;;;;5031747;28;20461;-76
2022/04/17 01:41:06;;;;;;;0.60;0.10;;;8.40;99.90;;;;;;5032620;28;20446;-75
2022/04/17 01:43:34;;;;;;;0.60;0.10;;;8.30;99.90;;;;;;5031535;28;20496;-76
2022/04/17 01:46:02;;;;;;;0.60;0.10;;;8.40;99.90;;;;;;5031243;28;20525;-76
2022/04/17 01:48:30;;;;;;;0.60;0.10;;;8.30;99.90;;;;;;5031557;28;20451;-76
2022/04/17 01:50:58;;;;;;;0.60;0.10;;;10.50;99.90;;;;;;5031968;28;20453;-76
2022/04/17 01:53:26;;;;;;;0.60;0.10;;;8.20;99.90;;;;;;5031509;28;20476;-76
2022/04/17 01:55:55;;;;;;;0.70;0.40;;;8.20;99.90;;;;;;5031354;28;20442;-76
2022/04/17 01:58:23;;;;;;;0.60;0.10;;;8.10;99.90;;;;;;5030781;28;20950;-76
2022/04/17 02:00:51;;;;;;;0.60;0.10;;;8.00;99.90;;;;;;5031549;28;20488;-76
2022/04/17 02:03:19;;;;;;;0.70;0.40;;;7.90;99.90;;;;;;5031992;28;20472;-77
2022/04/17 02:05:47;;;;;;;0.60;0.10;;;7.80;99.90;;;;;;5033802;28;20484;-77
2022/04/17 02:08:16;;;;;;;0.60;0.10;;;7.70;99.90;;;;;;5032071;28;20453;-75
2022/04/17 02:10:44;;;;;;;0.60;0.17;;;7.70;99.90;;;;;;5031276;28;20451;-76
2022/04/17 02:13:13;;;;;;;1.57;1.07;;;7.60;99.90;;;;;;5031657;28;20464;-76
2022/04/17 02:15:41;;;;;;;0.60;0.20;;;7.50;99.90;;;;;;5030866;28;20452;-74
2022/04/17 02:18:09;;;;;;;0.60;0.10;;;7.40;99.90;;;;;;5033707;28;20888;-76
2022/04/17 02:20:37;;;;;;;0.60;0.10;;;7.40;99.90;;;;;;5035130;28;20889;-76
2022/04/17 02:23:05;;;;;;;0.60;0.20;;;7.40;99.90;;;;;;5035426;28;20530;-75
2022/04/17 02:25:33;;;;;;;0.60;0.10;;;7.40;99.90;;;;;;5035939;28;20484;-77
2022/04/17 02:28:00;;;;;;;0.77;0.57;;;7.30;99.90;;;;;;5034208;28;20457;-75
2022/04/17 02:30:30;;;;;;;1.13;1.03;;;7.30;99.90;;;;;;5034712;28;20935;-76
2022/04/17 02:32:58;;;;;;;2.10;0.40;;;7.30;99.90;;;;;;5035010;28;20478;-76
2022/04/17 02:35:26;;;;;;;0.60;0.10;;;7.30;99.90;;;;;;5034657;28;21030;-76
2022/04/17 02:37:53;;;;;;;0.60;0.10;;;7.20;99.90;;;;;;5035518;28;20449;-75
2022/04/17 02:40:21;;;;;;;0.60;0.10;;;7.20;99.90;;;;;;5036655;28;20448;-75
2022/04/17 02:42:49;;;;;;;0.60;0.10;;;7.20;99.90;;;;;;5036004;28;20462;-75
2022/04/17 02:45:17;;;;;;;0.60;0.10;;;7.10;99.90;;;;;;5036745;28;20597;-76
2022/04/17 02:47:48;;;;;;;0.60;0.10;;;7.20;99.90;;;;;;5034880;28;20452;-76
2022/04/17 02:50:18;;;;;;;0.60;0.20;;;7.20;99.90;;;;;;5035294;28;20457;-76
2022/04/17 02:52:47;;;;;;;0.90;0.67;;;7.20;99.90;;;;;;5034688;28;20987;-75
2022/04/17 02:55:15;;;;;;;0.60;0.10;;;7.10;99.90;;;;;;5036108;28;20521;-76
2022/04/17 02:57:43;;;;;;;3.50;0.87;;;7.10;99.90;;;;;;5036344;28;20451;-75
2022/04/17 03:00:11;;;;;;;0.60;0.10;;;7.10;99.90;;;;;;5040165;28;20456;-75
2022/04/17 03:05:37;;;;;;;0.60;0.10;;;7.00;99.90;;;;;;5034485;28;20490;-75
2022/04/17 03:08:07;;;;;;;1.00;0.43;;;7.00;99.90;;;;;;5034766;28;20860;-75
2022/04/17 03:10:36;;;;;;;0.60;0.20;;;7.00;99.90;;;;;;5035554;28;20636;-75
2022/04/17 03:13:05;;;;;;;0.60;0.10;;;;;;;;;;5035195;28;20480;-75
2022/04/17 03:15:33;;;;;;;0.60;0.20;;;7.00;99.90;;;;;;5034965;28;20854;-74
2022/04/17 03:18:01;;;;;;;0.60;0.10;;;7.00;99.90;;;;;;5034274;28;20450;-75
2022/04/17 03:20:30;;;;;;;0.60;0.10;;;7.00;99.90;;;;;;5034419;28;20540;-74
2022/04/17 03:22:58;;;;;;;0.80;0.40;;;6.80;99.90;;;;;;5034218;28;20464;-75
2022/04/17 03:25:26;;;;;;;0.60;0.20;;;6.80;99.90;;;;;;5033307;28;20481;-74
2022/04/17 03:27:54;;;;;;;0.70;0.20;;;6.80;99.90;;;;;;5032844;28;20496;-75
2022/04/17 03:30:22;;;;;;;0.60;0.10;;;6.70;99.90;;;;;;5034082;28;20445;-76
2022/04/17 03:32:51;;;;;;;0.60;0.20;;;6.80;99.90;;;;;;5033631;28;20547;-75
2022/04/17 03:35:19;;;;;;;0.60;0.20;;;6.80;99.90;;;;;;5034965;28;20483;-74
2022/04/17 03:37:49;;;;;;;0.60;0.10;;;6.80;99.90;;;;;;5035964;28;20551;-77
2022/04/17 03:40:17;;;;;;;0.60;0.10;;;6.70;99.90;;;;;;5035031;28;20477;-75
2022/04/17 03:42:45;;;;;;;0.60;0.10;;;6.70;99.90;;;;;;5033871;28;20469;-74
2022/04/17 03:45:16;;;;;;;0.60;0.10;;;6.70;99.90;;;;;;5033105;28;20481;-75
2022/04/17 03:47:45;;;;;;;0.60;0.10;;;6.70;99.90;;;;;;5033219;28;20457;-75
2022/04/17 03:50:13;;;;;;;0.60;0.10;;;6.70;99.90;;;;;;5033534;28;20448;-75
2022/04/17 03:52:42;;;;;;;0.70;0.43;;;6.70;99.90;;;;;;5033674;28;20555;-75
2022/04/17 03:55:12;;;;;;;0.60;0.10;;;6.70;99.90;;;;;;5033055;28;20456;-75
2022/04/17 03:57:41;;;;;;;0.80;0.77;;;6.70;99.90;;;;;;5032412;28;20947;-74
2022/04/17 04:00:11;;;;;;;0.90;0.63;;;6.70;99.90;;;;;;5033557;28;20449;-75
2022/04/17 04:02:39;;;;;;;1.40;1.30;;;6.70;99.90;;;;;;5033837;28;20496;-76
2022/04/17 04:05:09;;;;;;;0.60;0.10;;;6.70;99.90;;;;;;5033337;28;20545;-75
2022/04/17 04:07:37;;;;;;;0.60;0.10;;;6.70;99.90;;;;;;5033006;28;20450;-74
2022/04/17 04:10:07;;;;;;;0.60;0.20;;;6.70;99.90;;;;;;5033322;28;20954;-74
2022/04/17 04:12:38;;;;;;;0.60;0.10;;;6.70;99.90;;;;;;5033352;28;20493;-76
2022/04/17 04:15:06;;;;;;;1.17;1.07;;;6.70;99.90;;;;;;5033151;28;20437;-75
2022/04/17 04:17:35;;;;;;;0.70;0.20;;;6.70;99.90;;;;;;5032935;28;20507;-74
2022/04/17 04:20:03;;;;;;;0.60;0.20;;;6.70;99.90;;;;;;5033162;28;20450;-76
2022/04/17 04:22:31;;;;;;;0.73;0.30;;;6.70;99.90;;;;;;5033537;28;20467;-75
2022/04/17 04:24:59;;;;;;;0.60;0.10;;;6.60;99.90;;;;;;5033605;28;20452;-76
2022/04/17 04:30:13;;;;;;;8.47;8.03;;;6.60;99.90;;;;;;5037298;28;20422;-75
2022/04/17 04:32:53;;;;;;;0.60;0.10;;;6.60;99.90;;;;;;5037616;28;20501;-75
2022/04/17 04:35:21;;;;;;;0.60;0.17;;;6.60;99.90;;;;;;5035293;28;20450;-75
2022/04/17 04:37:49;;;;;;;0.60;0.20;;;6.60;99.90;;;;;;5033713;28;20631;-75
2022/04/17 04:40:18;;;;;;;0.60;0.23;;;7.40;99.90;;;;;;5032651;28;20448;-75
2022/04/17 04:42:46;;;;;;;0.60;0.10;;;6.60;99.90;;;;;;5033120;28;20466;-76
2022/04/17 04:48:01;;;;;;;0.60;0.10;;;6.50;99.90;;;;;;5032933;28;20525;-75
2022/04/17 04:50:29;;;;;;;0.60;0.20;;;6.50;99.90;;;;;;5032989;28;20452;-75
2022/04/17 04:52:56;;;;;;;0.60;0.30;;;6.40;99.90;;;;;;5032888;28;20465;-74
2022/04/17 04:55:24;;;;;;;0.60;0.10;;;6.40;99.90;;;;;;5032302;28;20449;-75
2022/04/17 04:57:53;;;;;;;0.60;0.23;;;6.40;99.90;;;;;;5032255;28;20451;-74
2022/04/17 05:00:22;;;;;;;0.60;0.17;;;6.40;99.90;;;;;;5032302;28;20524;-75
2022/04/17 05:02:50;;;;;;;0.90;0.30;;;6.40;99.90;;;;;;5032513;28;20481;-75
2022/04/17 05:05:18;;;;;;;0.73;0.40;;;6.40;99.90;;;;;;5031722;28;20455;-75
2022/04/17 05:07:46;;;;;;;0.60;0.10;;;6.40;99.90;;;;;;5030600;28;20485;-75
2022/04/17 05:10:14;;;;;;;0.60;0.10;;;6.40;99.90;;;;;;5032284;28;20438;-75
2022/04/17 05:12:42;;;;;;;0.70;0.30;;;6.40;99.90;;;;;;5032459;28;20464;-75
2022/04/17 05:15:11;;;;;;;0.60;0.10;;;6.40;99.90;;;;;;5032223;28;20449;-75
2022/04/17 05:17:40;;;;;;;0.70;0.40;;;6.40;99.90;;;;;;5034003;28;20522;-76
2022/04/17 05:20:15;;;;;;;0.80;0.30;;;6.50;99.90;;;;;;5034341;28;20445;-75
2022/04/17 05:22:44;;;;;;;0.60;0.20;;;6.50;99.90;;;;;;5034748;28;20467;-75
2022/04/17 05:25:14;;;;;;;0.60;0.40;;;6.60;99.90;;;;;;5034093;28;20476;-75
2022/04/17 05:27:42;;;;;;;0.60;0.20;;;6.60;99.90;;;;;;5033097;28;20574;-76
2022/04/17 05:30:10;;;;;;;0.80;0.50;;;6.60;99.90;;;;;;5032538;28;20903;-74
2022/04/17 05:32:39;;;;;;;1.43;1.07;;;6.70;99.90;;;;;;5032739;28;20472;-73
2022/04/17 05:35:08;;;;;;;0.60;0.10;;;6.70;99.90;;;;;;5031649;28;20453;-75
2022/04/17 05:37:36;;;;;;;0.70;0.30;;;6.80;99.90;;;;;;5031981;28;20449;-74
2022/04/17 05:40:05;;;;;;;0.70;0.30;;;6.80;99.90;;;;;;5032237;28;20815;-75
2022/04/17 05:42:33;;;;;;;0.60;0.10;;;6.90;99.90;;;;;;5032519;28;20465;-75
2022/04/17 05:45:02;;;;;;;0.60;0.10;;;6.90;99.90;;;;;;5031345;28;20452;-74
2022/04/17 05:47:30;;;;;;;0.60;0.10;;;7.10;99.90;;;;;;5031179;28;20514;-75
2022/04/17 05:50:00;;;;;;;0.60;0.10;;;7.10;99.90;;;;;;5031415;28;20462;-75
2022/04/17 05:52:33;;;;;;;1.03;0.20;;;7.20;99.90;;;;;;5032390;28;20572;-75
2022/04/17 05:55:02;;;;;;;0.60;0.20;;;7.30;99.90;;;;;;5031073;28;20449;-75
2022/04/17 05:57:29;;;;;;;0.60;0.10;;;7.30;99.90;;;;;;5030876;28;20449;-75
2022/04/17 05:59:57;;;;;;;0.60;0.20;;;7.40;99.90;;;;;;5033019;28;20764;-74
2022/04/17 06:02:27;;;;;;;1.87;1.60;;;7.50;99.90;;;;;;5036487;28;20471;-74
2022/04/17 06:04:55;;;;;;;0.60;0.20;;;7.60;99.90;;;;;;5035277;28;20443;-75
2022/04/17 06:07:28;;;;;;;0.60;0.10;;;7.50;99.90;;;;;;5031039;28;20484;-75
2022/04/17 06:09:56;;;;;;;0.60;0.10;;;7.60;99.90;;;;;;5035840;28;20532;-75
2022/04/17 06:12:24;;;;;;;0.60;0.10;;;7.60;99.90;;;;;;5037284;28;20904;-76
2022/04/17 06:14:52;;;;;;;0.60;0.10;;;7.70;99.90;;;;;;5034910;28;20463;-75
2022/04/17 06:17:19;;;;;;;0.60;0.10;;;7.70;99.90;;;;;;5038599;28;20454;-75
2022/04/17 06:19:47;;;;;;;0.60;0.20;;;7.80;99.90;;;;;;5034693;28;20451;-75
2022/04/17 06:22:15;;;;;;;0.60;0.10;;;7.90;99.90;;;;;;5032967;28;20491;-76
2022/04/17 06:24:45;;;;;;;0.60;0.10;;;7.90;99.90;;;;;;5032094;28;20532;-75
2022/04/17 06:27:13;;;;;;;0.60;0.20;;;7.90;99.90;;;;;;5030944;28;20487;-75
2022/04/17 06:29:40;;;;;;;0.60;0.10;;;8.00;99.90;;;;;;5031465;28;20458;-76
2022/04/17 06:32:09;;;;;;;0.60;0.10;;;8.00;99.90;;;;;;5031762;28;20473;-74
2022/04/17 06:34:36;;;;;;;0.60;0.10;;;8.10;99.90;;;;;;5031145;28;20462;-74
2022/04/17 06:37:05;;;;;;;0.60;0.10;;;8.10;99.90;;;;;;5030753;28;20465;-75
2022/04/17 06:39:32;;;;;;;0.60;0.20;;;8.20;99.90;;;;;;5026313;28;20447;-75
2022/04/17 06:42:02;;;;;;;0.60;0.10;;;8.20;99.90;;;;;;5035493;28;20560;-75
2022/04/17 06:44:29;;;;;;;0.60;0.10;;;8.30;99.90;;;;;;5033298;28;20474;-75
2022/04/17 06:46:57;;;;;;;0.60;0.10;;;8.30;99.90;;;;;;5032018;28;20487;-76
2022/04/17 06:49:25;;;;;;;0.60;0.10;;;8.40;99.90;;;;;;5034208;28;20449;-75
2022/04/17 06:51:53;;;;;;;0.60;0.20;;;8.40;99.90;;;;;;5033191;28;20559;-74
2022/04/17 06:54:21;;;;;;;0.60;0.10;;;8.30;99.90;;;;;;5031670;28;20456;-76
2022/04/17 06:56:49;;;;;;;0.60;0.10;;;8.60;99.90;;;;;;5034227;28;20455;-75
2022/04/17 06:59:18;;;;;;;0.60;0.10;;;8.50;99.90;;;;;;5036897;28;20457;-76
2022/04/17 07:01:48;;;;;;;0.60;0.10;;;8.70;99.90;;;;;;5033613;28;20474;-75
2022/04/17 07:04:18;;;;;;;0.60;0.10;;;8.70;99.90;;;;;;5035698;28;20473;-75
2022/04/17 07:06:45;;;;;;;0.60;0.10;;;8.80;99.90;;;;;;5034976;28;20817;-76
2022/04/17 07:09:13;;;;;;;0.60;0.10;;;8.90;99.90;;;;;;5035653;28;20845;-74
2022/04/17 07:11:41;;;;;;;0.60;0.10;;;9.10;99.90;;;;;;5035979;28;20902;-75
2022/04/17 07:14:12;;;;;;;0.60;0.10;;;9.10;99.90;;;;;;5035162;28;20456;-75
2022/04/17 07:16:41;;;;;;;0.60;0.10;;;9.20;99.90;;;;;;5035462;28;20948;-75
2022/04/17 07:19:09;;;;;;;0.60;0.10;;;9.40;99.90;;;;;;5036276;28;20464;-75
2022/04/17 07:21:37;;;;;;;0.60;0.23;;;9.50;99.90;;;;;;5035845;28;20543;-75
2022/04/17 07:24:06;;;;;;;0.60;0.10;;;9.40;99.90;;;;;;5034777;28;20500;-75
2022/04/17 07:26:34;;;;;;;0.60;0.10;;;9.60;99.90;;;;;;5034392;28;20454;-75
2022/04/17 07:29:02;;;;;;;0.60;0.10;;;9.70;99.90;;;;;;5034207;28;20521;-75
2022/04/17 07:31:30;;;;;;;0.60;0.10;;;9.80;99.90;;;;;;5034419;28;20513;-75
2022/04/17 07:34:00;;;;;;;0.60;0.10;;;9.90;99.90;;;;;;5033740;28;20541;-75
2022/04/17 07:36:27;;;;;;;0.60;0.10;;;9.90;99.90;;;;;;5033880;28;20485;-76
2022/04/17 07:38:55;;;;;;;0.60;0.10;;;10.10;99.90;;;;;;5034888;28;20501;-75
2022/04/17 07:41:23;;;;;;;0.60;0.10;;;10.10;99.90;;;;;;5034675;28;20439;-75
2022/04/17 07:43:51;;;;;;;0.60;0.10;;;10.20;99.90;;;;;;5034289;28;20458;-75
2022/04/17 07:46:19;;;;;;;0.60;0.10;;;10.20;99.90;;;;;;5034358;28;20475;-76
2022/04/17 07:48:47;;;;;;;0.60;0.10;;;10.30;99.90;;;;;;5034421;28;20478;-74
2022/04/17 07:51:17;;;;;;;0.60;0.10;;;10.40;99.90;;;;;;5024499;28;20457;-76
2022/04/17 07:53:44;;;;;;;0.60;0.10;;;10.40;99.90;;;;;;5030859;28;20463;-74
2022/04/17 07:56:13;;;;;;;0.60;0.20;;;10.40;99.90;;;;;;5034752;28;20443;-74
2022/04/17 07:58:41;;;;;;;0.60;0.10;;;10.50;99.90;;;;;;5036570;28;20432;-76
2022/04/17 08:01:11;;;;;;;0.60;0.10;;;10.60;99.90;;;;;;5037696;28;20435;-75
2022/04/17 08:03:47;;;;;;;0.60;0.20;;;10.60;99.90;;;;;;5035182;28;20434;-76
2022/04/17 08:06:22;;;;;;;0.60;0.10;;;10.70;99.90;;;;;;5035994;28;20505;-75
2022/04/17 08:08:53;;;;;;;0.60;0.10;;;10.60;99.90;;;;;;5035967;28;20477;-76
2022/04/17 08:11:21;;;;;;;0.60;0.10;;;10.70;99.90;;;;;;5034959;28;20458;-76
2022/04/17 08:13:49;;;;;;;1.10;0.67;;;10.80;99.90;;;;;;5029737;28;20570;-76
2022/04/17 08:16:19;;;;;;;0.87;0.30;;;;;;;;;;5023382;28;20966;-76
2022/04/17 08:18:47;;;;;;;0.90;0.40;;;10.80;99.90;;;;;;5014117;28;20490;-75
2022/04/17 08:21:16;;;;;;;0.60;0.10;;;10.90;99.90;;;;;;5014303;28;20452;-76
2022/04/17 08:23:45;;;;;;;0.60;0.10;;;10.90;99.90;;;;;;5021900;28;20926;-75
2022/04/17 08:26:13;;;;;;;0.60;0.10;;;12.80;99.90;;;;;;5035850;28;20439;-76
2022/04/17 08:28:41;;;;;;;0.60;0.27;;;11.00;99.90;;;;;;5037125;28;20483;-76
2022/04/17 08:31:10;;;;;;;0.60;0.10;;;11.10;99.90;;;;;;5038805;28;20494;-76
2022/04/17 08:33:38;;;;;;;0.60;0.10;;;11.00;99.90;;;;;;5039170;28;20457;-76
2022/04/17 08:36:08;;;;;;;0.60;0.20;;;11.10;99.90;;;;;;5038705;28;20448;-74
2022/04/17 08:38:36;;;;;;;0.60;0.10;;;11.20;99.90;;;;;;5036364;28;20497;-75
2022/04/17 08:41:06;;;;;;;0.60;0.20;;;11.20;99.90;;;;;;5037754;28;20519;-75
2022/04/17 08:43:34;;;;;;;0.60;0.10;;;11.30;99.90;;;;;;5036007;28;20435;-75
2022/04/17 08:46:03;;;;;;;0.70;0.30;;;11.30;99.90;;;;;;5032752;28;20538;-76
2022/04/17 08:48:33;;;;;;;0.60;0.10;;;11.50;99.90;;;;;;5033573;28;20862;-74
2022/04/17 08:51:02;;;;;;;0.60;0.10;;;11.50;99.90;;;;;;5033792;28;20458;-76
2022/04/17 08:53:33;;;;;;;0.60;0.10;;;11.60;99.90;;;;;;5032999;28;20493;-76
2022/04/17 08:56:01;;;;;;;0.60;0.10;;;11.80;99.90;;;;;;5025629;28;20440;-75
2022/04/17 08:58:31;;;;;;;0.60;0.10;;;11.90;99.90;;;;;;5028264;28;20535;-74
2022/04/17 09:00:58;;;;;;;0.60;0.10;;;12.00;99.90;;;;;;5028646;28;20535;-74
2022/04/17 09:03:28;;;;;;;0.60;0.10;;;12.00;99.90;;;;;;5032835;28;20494;-76
2022/04/17 09:05:57;;;;;;;0.60;0.10;;;12.10;99.90;;;;;;5034465;28;20475;-74
2022/04/17 09:08:26;;;;;;;0.70;0.30;;;12.20;99.90;;;;;;5036379;28;20486;-75
2022/04/17 09:11:01;;;;;;;0.60;0.10;;;12.20;99.90;;;;;;5036833;28;20450;-76
2022/04/17 09:13:34;;;;;;;0.60;0.10;;;12.30;99.90;;;;;;5037181;28;20470;-76
2022/04/17 09:16:09;;;;;;;0.60;0.20;;;12.30;99.90;;;;;;5030091;28;20539;-76
2022/04/17 09:18:39;;;;;;;0.60;0.10;;;12.40;99.90;;;;;;5034813;28;20946;-75
2022/04/17 09:21:07;;;;;;;4.10;2.67;;;12.50;99.90;;;;;;5020142;28;20509;-75
2022/04/17 09:23:40;;;;;;;0.70;0.20;;;12.50;99.90;;;;;;5023269;28;20443;-75
2022/04/17 09:26:09;;;;;;;0.60;0.10;;;12.40;99.90;;;;;;5037331;28;20484;-74
2022/04/17 09:28:39;;;;;;;0.60;0.10;;;12.50;99.90;;;;;;5036498;28;20476;-75
2022/04/17 09:31:14;;;;;;;0.60;0.10;;;12.60;99.90;;;;;;5034297;28;20451;-74
2022/04/17 09:33:49;;;;;;;0.60;0.10;;;12.70;99.90;;;;;;5034570;28;20450;-75
2022/04/17 09:36:18;;;;;;;0.60;0.10;;;12.80;99.90;;;;;;5033328;28;20455;-75
2022/04/17 09:38:47;;;;;;;0.60;0.10;;;12.90;99.90;;;;;;5033004;28;20947;-75
2022/04/17 09:41:17;;;;;;;0.60;0.10;;;13.00;99.90;;;;;;5033016;28;20444;-74
2022/04/17 09:43:47;;;;;;;0.60;0.10;;;13.00;99.90;;;;;;5031913;28;20448;-74
2022/04/17 09:46:15;;;;;;;0.60;0.10;;;13.10;99.90;;;;;;5031683;28;20448;-75
2022/04/17 09:48:45;;;;;;;0.60;0.10;;;13.10;99.90;;;;;;5032320;28;20481;-75
2022/04/17 09:51:23;;;;;;;0.60;0.10;;;13.30;99.90;;;;;;5031662;28;20538;-75
2022/04/17 09:53:59;;;;;;;0.60;0.10;;;13.30;99.90;;;;;;5031947;28;20545;-73
2022/04/17 09:56:33;;;;;;;0.60;0.20;;;13.40;99.90;;;;;;5032030;28;20529;-77
2022/04/17 09:59:14;;;;;;;0.60;0.10;;;13.70;99.90;;;;;;5031829;28;21012;-77
2022/04/17 10:01:44;;;;;;;0.60;0.10;;;13.80;99.90;;;;;;5035138;28;20538;-77
2022/04/17 10:04:13;;;;;;;0.60;0.20;;;13.90;99.90;;;;;;5035969;28;20828;-75
2022/04/17 10:06:41;;;;;;;0.60;0.10;;;14.00;99.90;;;;;;5032843;28;20455;-71
2022/04/17 10:09:11;;;;;;;0.60;0.10;;;14.00;99.90;;;;;;5031843;28;20479;-77
2022/04/17 10:11:40;;;;;;;0.60;0.10;;;14.20;99.90;;;;;;5031903;28;20476;-78
2022/04/17 10:14:10;;;;;;;0.60;0.10;;;14.20;99.90;;;;;;5032059;28;20445;-75
2022/04/17 10:16:41;;;;;;;0.60;0.10;;;14.30;99.90;;;;;;5032094;28;20455;-75
2022/04/17 10:19:13;;;;;;;0.60;0.10;;;14.30;99.90;;;;;;5031994;28;20444;-76
2022/04/17 10:21:41;;;;;;;0.60;0.10;;;14.50;99.90;;;;;;5032180;28;20484;-76
2022/04/17 10:24:12;;;;;;;1.83;0.63;;;14.70;99.90;;;;;;5029766;28;20451;-75
2022/04/17 10:26:45;;;;;;;0.60;0.10;;;14.80;99.90;;;;;;5031174;28;20448;-76
2022/04/17 10:29:21;;;;;;;0.70;0.20;;;14.90;99.90;;;;;;5032634;28;20487;-75
2022/04/17 10:32:24;;;;;;;0.60;0.10;;;14.90;99.90;;;;;;5030080;28;20480;-76
2022/04/17 10:35:09;;;;;;;0.60;0.10;;;14.90;99.90;;;;;;5030874;28;20477;-75
2022/04/17 10:38:05;;;;;;;0.60;0.20;;;14.90;99.90;;;;;;5031610;28;20448;-75
2022/04/17 10:40:34;;;;;;;0.60;0.10;;;14.70;99.90;;;;;;5035279;28;20454;-75
2022/04/17 10:43:03;;;;;;;0.60;0.10;;;14.80;99.90;;;;;;5035078;28;20472;-75
2022/04/17 10:45:32;;;;;;;0.60;0.17;;;14.90;99.90;;;;;;5035784;28;20440;-74
2022/04/17 10:48:09;;;;;;;0.70;0.50;;;14.90;99.90;;;;;;5035402;28;20830;-75
2022/04/17 10:50:42;;;;;;;0.60;0.10;;;15.80;99.90;;;;;;5038802;28;20487;-75
2022/04/17 10:53:27;;;;;;;0.60;0.13;;;14.80;99.90;;;;;;5042848;28;20486;-75
2022/04/17 10:56:08;;;;;;;0.60;0.10;;;14.90;99.90;;;;;;5040038;28;20521;-75
2022/04/17 10:58:51;;;;;;;0.60;0.10;;;15.00;99.90;;;;;;5029961;28;20454;-74
2022/04/17 11:01:54;;;;;;;0.60;0.10;;;15.20;99.90;;;;;;5034574;28;20497;-75
2022/04/17 11:04:27;;;;;;;0.60;0.17;;;15.30;99.90;;;;;;5034116;28;20478;-75
2022/04/17 11:07:19;;;;;;;0.60;0.10;;;15.20;99.90;;;;;;5033761;28;20443;-75
2022/04/17 11:09:47;;;;;;;0.63;0.33;;;15.20;99.90;;;;;;5025272;28;20487;-73
2022/04/17 11:12:26;;;;;;;0.60;0.10;;;15.30;99.90;;;;;;5036138;28;20463;-76
2022/04/17 11:14:56;;;;;;;0.60;0.10;;;15.20;99.90;;;;;;5034410;28;20483;-75
2022/04/17 11:17:25;;;;;;;0.60;0.10;;;15.10;99.90;;;;;;5035133;28;20455;-75
2022/04/17 11:19:56;;;;;;;0.60;0.10;;;15.20;99.90;;;;;;5034395;28;20443;-76
2022/04/17 11:22:28;;;;;;;0.60;0.10;;;15.40;99.90;;;;;;5033220;28;20463;-75
2022/04/17 11:25:07;;;;;;;0.60;0.10;;;15.50;99.90;;;;;;5032878;28;20891;-75
2022/04/17 11:27:38;;;;;;;0.70;0.43;;;15.60;99.90;;;;;;5015829;28;20463;-74
2022/04/17 11:30:08;;;;;;;0.70;0.33;;;15.70;99.90;;;;;;5029923;28;20510;-75
2022/04/17 11:32:50;;;;;;;0.60;0.10;;;15.70;99.90;;;;;;5034436;28;20471;-75
2022/04/17 11:35:21;;;;;;;0.60;0.20;;;15.90;99.90;;;;;;5033367;28;20444;-75
2022/04/17 11:37:58;;;;;;;0.60;0.10;;;16.10;99.90;;;;;;5034142;28;20811;-74
2022/04/17 11:40:27;;;;;;;0.60;0.10;;;16.10;99.90;;;;;;5035166;28;20432;-75
2022/04/17 11:42:57;;;;;;;0.60;0.20;;;16.20;99.90;;;;;;5035443;28;20474;-76
2022/04/17 11:45:26;;;;;;;0.83;0.40;;;16.20;99.90;;;;;;5035820;28;20454;-75
2022/04/17 11:47:57;;;;;;;0.70;0.30;;;16.10;99.90;;;;;;5035927;28;20451;-75
2022/04/17 11:50:29;;;;;;;0.60;0.10;;;15.90;99.90;;;;;;5037617;28;20479;-75
2022/04/17 11:52:58;;;;;;;3.00;1.90;;;15.90;99.90;;;;;;5038014;28;20480;-75
2022/04/17 11:55:29;;;;;;;0.60;0.17;;;15.90;99.90;;;;;;5036459;28;20466;-75
2022/04/17 11:57:57;;;;;;;0.60;0.20;;;16.00;99.90;;;;;;5034768;28;20455;-75
2022/04/17 12:00:26;;;;;;;0.60;0.10;;;16.10;99.90;;;;;;5034374;28;20446;-75
2022/04/17 12:03:03;;;;;;;0.60;0.10;;;16.20;99.90;;;;;;5034473;28;20495;-75
2022/04/17 12:05:32;;;;;;;0.60;0.10;;;16.20;99.90;;;;;;5034246;28;20446;-76
2022/04/17 12:08:06;;;;;;;0.60;0.10;;;16.50;99.90;;;;;;5034486;28;20449;-75
2022/04/17 12:10:35;;;;;;;0.60;0.10;;;16.50;99.90;;;;;;5033903;28;20531;-75
2022/04/17 12:13:17;;;;;;;0.60;0.10;;;16.70;99.90;;;;;;5033252;28;20866;-74
2022/04/17 12:15:48;;;;;;;0.60;0.20;;;16.70;99.90;;;;;;5033082;28;20520;-75
2022/04/17 12:18:20;;;;;;;0.60;0.20;;;16.60;99.90;;;;;;5034102;28;20450;-75
2022/04/17 12:20:55;;;;;;;0.60;0.20;;;16.50;99.90;;;;;;5033703;28;20439;-75
2022/04/17 12:23:24;;;;;;;0.93;0.50;;;16.40;99.90;;;;;;5032897;28;20845;-74
2022/04/17 12:25:53;;;;;;;0.60;0.10;;;16.30;99.90;;;;;;5033185;28;20456;-75
2022/04/17 12:28:22;;;;;;;0.60;0.10;;;16.40;99.90;;;;;;5033102;28;20450;-75
2022/04/17 12:30:50;;;;;;;0.60;0.20;;;;;;;;;;5033816;28;20487;-77
2022/04/17 12:33:27;;;;;;;0.70;0.50;;;16.60;99.90;;;;;;5033772;28;20478;-75
2022/04/17 12:36:13;;;;;;;0.70;0.50;;;16.70;99.90;;;;;;5033539;28;20453;-76
2022/04/17 12:38:43;;;;;;;0.60;0.10;;;16.80;99.90;;;;;;5033051;28;20528;-75
2022/04/17 12:41:19;;;;;;;0.60;0.20;;;17.00;99.90;;;;;;5033146;28;20438;-74
2022/04/17 12:43:49;;;;;;;0.60;0.10;;;17.00;99.90;;;;;;5033257;28;20525;-76
2022/04/17 12:46:26;;;;;;;0.60;0.10;;;17.00;99.90;;;;;;5032548;28;20470;-75
2022/04/17 12:49:07;;;;;;;0.60;0.10;;;17.00;99.90;;;;;;5029977;28;20544;-75
2022/04/17 12:51:35;;;;;;;0.60;0.10;;;17.10;99.90;;;;;;5035015;28;20487;-73
2022/04/17 12:54:05;;;;;;;0.60;0.10;;;17.10;99.90;;;;;;5037926;28;20444;-74
2022/04/17 12:56:33;;;;;;;0.60;0.20;;;17.10;99.90;;;;;;5032994;28;20555;-74
2022/04/17 12:59:02;;;;;;;0.60;0.10;;;17.20;99.90;;;;;;5033061;28;20454;-73
2022/04/17 13:01:32;;;;;;;0.60;0.10;;;17.20;99.90;;;;;;5031864;28;20471;-75
2022/04/17 13:04:16;;;;;;;0.60;0.20;;;17.20;99.90;;;;;;5032232;28;20441;-74
2022/04/17 13:06:44;;;;;;;0.60;0.10;;;17.30;99.90;;;;;;5032416;28;20583;-74
2022/04/17 13:09:18;;;;;;;0.60;0.20;;;17.30;99.90;;;;;;5032984;28;20495;-74
2022/04/17 13:11:49;;;;;;;0.60;0.20;;;17.40;99.90;;;;;;5032703;28;20487;-74
2022/04/17 13:14:17;;;;;;;0.60;0.13;;;17.50;99.90;;;;;;5030224;28;20461;-73
2022/04/17 13:16:50;;;;;;;0.60;0.10;;;17.60;99.90;;;;;;5023805;28;20930;-74
2022/04/17 13:19:20;;;;;;;0.60;0.10;;;17.60;99.90;;;;;;5028906;28;20444;-74
2022/04/17 13:21:49;;;;;;;0.60;0.20;;;17.70;99.90;;;;;;5032096;28;20541;-74